sensor_id;sensor_type;location;lat;lon;timestamp;P1;P2;P0
61592;PMS5003;47485;51.378;-1.342;2022-07-21T00:01:52;0;0;
61592;PMS5003;47485;51.378;-1.342;2022-07-21T00:04:20;2;2;
61592;PMS5003;47485;51.378;-1.342;2022-07-21T00:06:47;3;2;
61592;PMS5003;47485;51.378;-1.342;2022-07-21T00:09:15;0;0;
61592;PMS5003;47485;51.378;-1.342;2022-07-21T00:11:42;1;0;
61592;PMS5003;47485;51.378;-1.342;2022-07-21T00:14:10;1;1;
61592;PMS5003;47485;51.378;-1.342;2022-07-21T00:16:38;3;2;
61592;PMS5003;47485;51.378;-1.342;2022-07-21T00:19:05;1;1;
61592;PMS5003;47485;51.378;-1.342;2022-07-21T00:21:32;1;0;
61592;PMS5003;47485;51.378;-1.342;2022-07-21T00:23:58;4;2;
61592;PMS5003;47485;51.378;-1.342;2022-07-21T00:26:25;3;1;
61592;PMS5003;47485;51.378;-1.342;2022-07-21T00:28:53;2;1;
61592;PMS5003;47485;51.378;-1.342;2022-07-21T00:31:20;6;3;
61592;PMS5003;47485;51.378;-1.342;2022-07-21T00:33:47;6;5;
61592;PMS5003;47485;51.378;-1.342;2022-07-21T00:36:14;3;3;
61592;PMS5003;47485;51.378;-1.342;2022-07-21T00:38:41;1;1;
61592;PMS5003;47485;51.378;-1.342;2022-07-21T00:41:09;1;0;
61592;PMS5003;47485;51.378;-1.342;2022-07-21T00:43:35;1;1;
61592;PMS5003;47485;51.378;-1.342;2022-07-21T00:46:02;1;1;
61592;PMS5003;47485;51.378;-1.342;2022-07-21T00:48:29;4;2;
61592;PMS5003;47485;51.378;-1.342;2022-07-21T00:50:55;4;3;
61592;PMS5003;47485;51.378;-1.342;2022-07-21T00:53:22;1;1;
61592;PMS5003;47485;51.378;-1.342;2022-07-21T00:55:49;4;2;
61592;PMS5003;47485;51.378;-1.342;2022-07-21T00:58:16;3;3;
61592;PMS5003;47485;51.378;-1.342;2022-07-21T01:00:43;3;2;
61592;PMS5003;47485;51.378;-1.342;2022-07-21T01:03:11;2;2;
61592;PMS5003;47485;51.378;-1.342;2022-07-21T01:05:38;2;2;
61592;PMS5003;47485;51.378;-1.342;2022-07-21T01:08:05;3;3;
61592;PMS5003;47485;51.378;-1.342;2022-07-21T01:10:32;3;3;
61592;PMS5003;47485;51.378;-1.342;2022-07-21T01:12:59;3;1;
61592;PMS5003;47485;51.378;-1.342;2022-07-21T01:15:26;1;1;
61592;PMS5003;47485;51.378;-1.342;2022-07-21T01:17:53;1;1;
61592;PMS5003;47485;51.378;-1.342;2022-07-21T01:20:21;2;1;
61592;PMS5003;47485;51.378;-1.342;2022-07-21T01:22:49;2;2;
61592;PMS5003;47485;51.378;-1.342;2022-07-21T01:25:18;1;1;
61592;PMS5003;47485;51.378;-1.342;2022-07-21T01:27:46;3;2;
61592;PMS5003;47485;51.378;-1.342;2022-07-21T01:30:13;3;2;
61592;PMS5003;47485;51.378;-1.342;2022-07-21T01:32:40;2;2;
61592;PMS5003;47485;51.378;-1.342;2022-07-21T01:35:09;3;3;
61592;PMS5003;47485;51.378;-1.342;2022-07-21T01:37:39;4;3;
61592;PMS5003;47485;51.378;-1.342;2022-07-21T01:40:10;2;2;
61592;PMS5003;47485;51.378;-1.342;2022-07-21T01:42:37;3;3;
61592;PMS5003;47485;51.378;-1.342;2022-07-21T01:45:05;3;2;
61592;PMS5003;47485;51.378;-1.342;2022-07-21T01:47:33;1;1;
61592;PMS5003;47485;51.378;-1.342;2022-07-21T01:49:59;1;1;
61592;PMS5003;47485;51.378;-1.342;2022-07-21T01:52:26;4;1;
61592;PMS5003;47485;51.378;-1.342;2022-07-21T01:54:53;2;2;
61592;PMS5003;47485;51.378;-1.342;2022-07-21T01:57:20;2;2;
61592;PMS5003;47485;51.378;-1.342;2022-07-21T01:59:47;1;1;
61592;PMS5003;47485;51.378;-1.342;2022-07-21T02:02:13;2;2;
61592;PMS5003;47485;51.378;-1.342;2022-07-21T02:04:40;2;2;
61592;PMS5003;47485;51.378;-1.342;2022-07-21T02:07:07;6;4;
61592;PMS5003;47485;51.378;-1.342;2022-07-21T02:09:34;2;2;
61592;PMS5003;47485;51.378;-1.342;2022-07-21T02:12:01;3;1;
61592;PMS5003;47485;51.378;-1.342;2022-07-21T02:14:27;4;2;
61592;PMS5003;47485;51.378;-1.342;2022-07-21T02:16:54;3;2;
61592;PMS5003;47485;51.378;-1.342;2022-07-21T02:19:21;1;1;
61592;PMS5003;47485;51.378;-1.342;2022-07-21T02:21:47;1;1;
61592;PMS5003;47485;51.378;-1.342;2022-07-21T02:24:14;2;2;
61592;PMS5003;47485;51.378;-1.342;2022-07-21T02:26:41;3;1;
61592;PMS5003;47485;51.378;-1.342;2022-07-21T02:29:09;3;2;
61592;PMS5003;47485;51.378;-1.342;2022-07-21T02:31:36;3;2;
61592;PMS5003;47485;51.378;-1.342;2022-07-21T02:34:02;9;7;
61592;PMS5003;47485;51.378;-1.342;2022-07-21T02:36:29;5;2;
61592;PMS5003;47485;51.378;-1.342;2022-07-21T02:38:56;3;2;
61592;PMS5003;47485;51.378;-1.342;2022-07-21T02:41:22;2;2;
61592;PMS5003;47485;51.378;-1.342;2022-07-21T02:43:49;2;2;
61592;PMS5003;47485;51.378;-1.342;2022-07-21T02:46:16;2;2;
61592;PMS5003;47485;51.378;-1.342;2022-07-21T02:48:43;2;2;
61592;PMS5003;47485;51.378;-1.342;2022-07-21T02:51:10;4;1;
61592;PMS5003;47485;51.378;-1.342;2022-07-21T02:53:37;1;1;
61592;PMS5003;47485;51.378;-1.342;2022-07-21T02:56:04;1;1;
61592;PMS5003;47485;51.378;-1.342;2022-07-21T02:58:31;2;2;
61592;PMS5003;47485;51.378;-1.342;2022-07-21T03:00:59;2;2;
61592;PMS5003;47485;51.378;-1.342;2022-07-21T03:03:28;2;2;
61592;PMS5003;47485;51.378;-1.342;2022-07-21T03:05:56;3;3;
61592;PMS5003;47485;51.378;-1.342;2022-07-21T03:08:24;4;4;
61592;PMS5003;47485;51.378;-1.342;2022-07-21T03:10:53;2;2;
61592;PMS5003;47485;51.378;-1.342;2022-07-21T03:13:20;3;2;
61592;PMS5003;47485;51.378;-1.342;2022-07-21T03:15:48;4;4;
61592;PMS5003;47485;51.378;-1.342;2022-07-21T03:18:15;2;2;
61592;PMS5003;47485;51.378;-1.342;2022-07-21T03:20:42;3;3;
61592;PMS5003;47485;51.378;-1.342;2022-07-21T03:23:10;3;3;
61592;PMS5003;47485;51.378;-1.342;2022-07-21T03:25:37;3;2;
61592;PMS5003;47485;51.378;-1.342;2022-07-21T03:28:04;3;2;
61592;PMS5003;47485;51.378;-1.342;2022-07-21T03:30:31;5;3;
61592;PMS5003;47485;51.378;-1.342;2022-07-21T03:32:58;1;1;
61592;PMS5003;47485;51.378;-1.342;2022-07-21T03:35:25;3;3;
61592;PMS5003;47485;51.378;-1.342;2022-07-21T03:37:53;1;1;
61592;PMS5003;47485;51.378;-1.342;2022-07-21T03:40:21;3;1;
61592;PMS5003;47485;51.378;-1.342;2022-07-21T03:42:49;1;1;
61592;PMS5003;47485;51.378;-1.342;2022-07-21T03:45:17;3;3;
61592;PMS5003;47485;51.378;-1.342;2022-07-21T03:47:44;4;1;
61592;PMS5003;47485;51.378;-1.342;2022-07-21T03:50:11;4;4;
61592;PMS5003;47485;51.378;-1.342;2022-07-21T03:52:38;2;2;
61592;PMS5003;47485;51.378;-1.342;2022-07-21T03:55:05;4;3;
61592;PMS5003;47485;51.378;-1.342;2022-07-21T03:57:33;2;2;
61592;PMS5003;47485;51.378;-1.342;2022-07-21T04:00:02;4;3;
61592;PMS5003;47485;51.378;-1.342;2022-07-21T04:02:30;4;3;
61592;PMS5003;47485;51.378;-1.342;2022-07-21T04:04:57;3;3;
61592;PMS5003;47485;51.378;-1.342;2022-07-21T04:07:24;5;2;
61592;PMS5003;47485;51.378;-1.342;2022-07-21T04:09:51;2;2;
61592;PMS5003;47485;51.378;-1.342;2022-07-21T04:12:18;3;3;
61592;PMS5003;47485;51.378;-1.342;2022-07-21T04:14:44;4;3;
61592;PMS5003;47485;51.378;-1.342;2022-07-21T04:17:11;4;4;
61592;PMS5003;47485;51.378;-1.342;2022-07-21T04:19:38;2;2;
61592;PMS5003;47485;51.378;-1.342;2022-07-21T04:22:05;3;3;
61592;PMS5003;47485;51.378;-1.342;2022-07-21T04:24:32;4;2;
61592;PMS5003;47485;51.378;-1.342;2022-07-21T04:26:58;5;2;
61592;PMS5003;47485;51.378;-1.342;2022-07-21T04:29:25;4;2;
61592;PMS5003;47485;51.378;-1.342;2022-07-21T04:31:52;2;2;
61592;PMS5003;47485;51.378;-1.342;2022-07-21T04:34:19;4;2;
61592;PMS5003;47485;51.378;-1.342;2022-07-21T04:36:46;6;5;
61592;PMS5003;47485;51.378;-1.342;2022-07-21T04:39:12;3;3;
61592;PMS5003;47485;51.378;-1.342;2022-07-21T04:41:39;4;3;
61592;PMS5003;47485;51.378;-1.342;2022-07-21T04:44:06;3;3;
61592;PMS5003;47485;51.378;-1.342;2022-07-21T04:46:33;4;4;
61592;PMS5003;47485;51.378;-1.342;2022-07-21T04:49:00;5;5;
61592;PMS5003;47485;51.378;-1.342;2022-07-21T04:51:26;8;3;
61592;PMS5003;47485;51.378;-1.342;2022-07-21T04:53:53;3;2;
61592;PMS5003;47485;51.378;-1.342;2022-07-21T04:56:20;9;5;
61592;PMS5003;47485;51.378;-1.342;2022-07-21T04:58:47;5;4;
61592;PMS5003;47485;51.378;-1.342;2022-07-21T05:01:14;7;4;
61592;PMS5003;47485;51.378;-1.342;2022-07-21T05:03:40;3;3;
61592;PMS5003;47485;51.378;-1.342;2022-07-21T05:06:07;3;2;
61592;PMS5003;47485;51.378;-1.342;2022-07-21T05:08:34;4;4;
61592;PMS5003;47485;51.378;-1.342;2022-07-21T05:11:01;6;4;
61592;PMS5003;47485;51.378;-1.342;2022-07-21T05:13:27;5;5;
61592;PMS5003;47485;51.378;-1.342;2022-07-21T05:15:54;7;6;
61592;PMS5003;47485;51.378;-1.342;2022-07-21T05:18:21;4;3;
61592;PMS5003;47485;51.378;-1.342;2022-07-21T05:20:48;3;3;
61592;PMS5003;47485;51.378;-1.342;2022-07-21T05:23:15;4;4;
61592;PMS5003;47485;51.378;-1.342;2022-07-21T05:25:43;3;3;
61592;PMS5003;47485;51.378;-1.342;2022-07-21T05:28:10;5;5;
61592;PMS5003;47485;51.378;-1.342;2022-07-21T05:30:37;4;3;
61592;PMS5003;47485;51.378;-1.342;2022-07-21T05:33:04;4;4;
61592;PMS5003;47485;51.378;-1.342;2022-07-21T05:35:30;3;3;
61592;PMS5003;47485;51.378;-1.342;2022-07-21T05:37:57;3;3;
61592;PMS5003;47485;51.378;-1.342;2022-07-21T05:40:24;5;5;
61592;PMS5003;47485;51.378;-1.342;2022-07-21T05:42:51;5;3;
61592;PMS5003;47485;51.378;-1.342;2022-07-21T05:45:18;4;4;
61592;PMS5003;47485;51.378;-1.342;2022-07-21T05:47:44;3;3;
61592;PMS5003;47485;51.378;-1.342;2022-07-21T05:50:12;5;5;
61592;PMS5003;47485;51.378;-1.342;2022-07-21T05:52:39;6;4;
61592;PMS5003;47485;51.378;-1.342;2022-07-21T05:55:06;5;5;
61592;PMS5003;47485;51.378;-1.342;2022-07-21T05:57:33;6;4;
61592;PMS5003;47485;51.378;-1.342;2022-07-21T06:00:00;5;5;
61592;PMS5003;47485;51.378;-1.342;2022-07-21T06:02:27;7;4;
61592;PMS5003;47485;51.378;-1.342;2022-07-21T06:04:54;6;6;
61592;PMS5003;47485;51.378;-1.342;2022-07-21T06:07:21;4;4;
61592;PMS5003;47485;51.378;-1.342;2022-07-21T06:09:48;6;4;
61592;PMS5003;47485;51.378;-1.342;2022-07-21T06:12:15;4;4;
61592;PMS5003;47485;51.378;-1.342;2022-07-21T06:14:42;9;7;
61592;PMS5003;47485;51.378;-1.342;2022-07-21T06:17:10;3;3;
61592;PMS5003;47485;51.378;-1.342;2022-07-21T06:19:37;4;4;
61592;PMS5003;47485;51.378;-1.342;2022-07-21T06:22:04;4;2;
61592;PMS5003;47485;51.378;-1.342;2022-07-21T06:24:31;3;3;
61592;PMS5003;47485;51.378;-1.342;2022-07-21T06:26:57;8;5;
61592;PMS5003;47485;51.378;-1.342;2022-07-21T06:29:24;4;4;
61592;PMS5003;47485;51.378;-1.342;2022-07-21T06:31:51;4;4;
61592;PMS5003;47485;51.378;-1.342;2022-07-21T06:34:17;7;6;
61592;PMS5003;47485;51.378;-1.342;2022-07-21T06:36:44;7;5;
61592;PMS5003;47485;51.378;-1.342;2022-07-21T06:39:11;5;5;
61592;PMS5003;47485;51.378;-1.342;2022-07-21T06:41:38;6;5;
61592;PMS5003;47485;51.378;-1.342;2022-07-21T06:44:05;4;4;
61592;PMS5003;47485;51.378;-1.342;2022-07-21T06:46:33;7;5;
61592;PMS5003;47485;51.378;-1.342;2022-07-21T06:49:00;5;3;
61592;PMS5003;47485;51.378;-1.342;2022-07-21T06:51:26;3;2;
61592;PMS5003;47485;51.378;-1.342;2022-07-21T06:53:53;6;5;
61592;PMS5003;47485;51.378;-1.342;2022-07-21T06:56:20;4;4;
61592;PMS5003;47485;51.378;-1.342;2022-07-21T06:58:47;10;6;
61592;PMS5003;47485;51.378;-1.342;2022-07-21T07:01:14;8;6;
61592;PMS5003;47485;51.378;-1.342;2022-07-21T07:03:40;6;3;
61592;PMS5003;47485;51.378;-1.342;2022-07-21T07:06:07;4;4;
61592;PMS5003;47485;51.378;-1.342;2022-07-21T07:08:35;9;5;
61592;PMS5003;47485;51.378;-1.342;2022-07-21T07:11:02;8;6;
61592;PMS5003;47485;51.378;-1.342;2022-07-21T07:13:29;4;4;
61592;PMS5003;47485;51.378;-1.342;2022-07-21T07:15:56;6;5;
61592;PMS5003;47485;51.378;-1.342;2022-07-21T07:18:22;8;6;
61592;PMS5003;47485;51.378;-1.342;2022-07-21T07:20:49;5;5;
61592;PMS5003;47485;51.378;-1.342;2022-07-21T07:23:16;5;4;
61592;PMS5003;47485;51.378;-1.342;2022-07-21T07:25:45;7;6;
61592;PMS5003;47485;51.378;-1.342;2022-07-21T07:28:11;6;6;
61592;PMS5003;47485;51.378;-1.342;2022-07-21T07:30:38;7;4;
61592;PMS5003;47485;51.378;-1.342;2022-07-21T07:33:05;3;3;
61592;PMS5003;47485;51.378;-1.342;2022-07-21T07:35:31;10;6;
61592;PMS5003;47485;51.378;-1.342;2022-07-21T07:37:58;7;3;
61592;PMS5003;47485;51.378;-1.342;2022-07-21T07:40:25;6;4;
61592;PMS5003;47485;51.378;-1.342;2022-07-21T07:42:52;7;4;
61592;PMS5003;47485;51.378;-1.342;2022-07-21T07:45:18;5;5;
61592;PMS5003;47485;51.378;-1.342;2022-07-21T07:47:45;6;5;
61592;PMS5003;47485;51.378;-1.342;2022-07-21T07:50:13;9;6;
61592;PMS5003;47485;51.378;-1.342;2022-07-21T07:52:40;4;3;
61592;PMS5003;47485;51.378;-1.342;2022-07-21T07:55:08;5;4;
61592;PMS5003;47485;51.378;-1.342;2022-07-21T07:57:36;5;5;
61592;PMS5003;47485;51.378;-1.342;2022-07-21T08:00:04;6;6;
61592;PMS5003;47485;51.378;-1.342;2022-07-21T08:02:33;7;5;
61592;PMS5003;47485;51.378;-1.342;2022-07-21T08:05:01;6;4;
61592;PMS5003;47485;51.378;-1.342;2022-07-21T08:07:28;8;5;
61592;PMS5003;47485;51.378;-1.342;2022-07-21T08:09:55;4;3;
61592;PMS5003;47485;51.378;-1.342;2022-07-21T08:12:21;4;3;
61592;PMS5003;47485;51.378;-1.342;2022-07-21T08:14:48;5;4;
61592;PMS5003;47485;51.378;-1.342;2022-07-21T08:17:15;7;7;
61592;PMS5003;47485;51.378;-1.342;2022-07-21T08:19:42;10;5;
61592;PMS5003;47485;51.378;-1.342;2022-07-21T08:22:10;7;6;
61592;PMS5003;47485;51.378;-1.342;2022-07-21T08:24:37;7;6;
61592;PMS5003;47485;51.378;-1.342;2022-07-21T08:27:03;5;3;
61592;PMS5003;47485;51.378;-1.342;2022-07-21T08:29:30;6;6;
61592;PMS5003;47485;51.378;-1.342;2022-07-21T08:31:57;8;7;
61592;PMS5003;47485;51.378;-1.342;2022-07-21T08:34:24;6;6;
61592;PMS5003;47485;51.378;-1.342;2022-07-21T08:36:51;7;7;
61592;PMS5003;47485;51.378;-1.342;2022-07-21T08:39:17;7;6;
61592;PMS5003;47485;51.378;-1.342;2022-07-21T08:41:45;7;6;
61592;PMS5003;47485;51.378;-1.342;2022-07-21T08:44:12;5;5;
61592;PMS5003;47485;51.378;-1.342;2022-07-21T08:46:39;6;6;
61592;PMS5003;47485;51.378;-1.342;2022-07-21T08:49:07;8;6;
61592;PMS5003;47485;51.378;-1.342;2022-07-21T08:51:35;7;6;
61592;PMS5003;47485;51.378;-1.342;2022-07-21T08:54:02;11;6;
61592;PMS5003;47485;51.378;-1.342;2022-07-21T08:56:30;9;7;
61592;PMS5003;47485;51.378;-1.342;2022-07-21T08:58:56;7;6;
61592;PMS5003;47485;51.378;-1.342;2022-07-21T09:01:23;5;5;
61592;PMS5003;47485;51.378;-1.342;2022-07-21T09:03:50;7;7;
61592;PMS5003;47485;51.378;-1.342;2022-07-21T09:06:18;6;6;
61592;PMS5003;47485;51.378;-1.342;2022-07-21T09:08:46;7;5;
61592;PMS5003;47485;51.378;-1.342;2022-07-21T09:11:16;8;7;
61592;PMS5003;47485;51.378;-1.342;2022-07-21T09:13:46;6;6;
61592;PMS5003;47485;51.378;-1.342;2022-07-21T09:16:14;8;5;
61592;PMS5003;47485;51.378;-1.342;2022-07-21T09:18:49;8;6;
61592;PMS5003;47485;51.378;-1.342;2022-07-21T09:21:17;9;6;
61592;PMS5003;47485;51.378;-1.342;2022-07-21T09:23:45;6;6;
61592;PMS5003;47485;51.378;-1.342;2022-07-21T09:26:12;10;10;
61592;PMS5003;47485;51.378;-1.342;2022-07-21T09:28:39;11;8;
61592;PMS5003;47485;51.378;-1.342;2022-07-21T09:31:07;10;7;
61592;PMS5003;47485;51.378;-1.342;2022-07-21T09:33:36;8;8;
61592;PMS5003;47485;51.378;-1.342;2022-07-21T09:36:05;15;11;
61592;PMS5003;47485;51.378;-1.342;2022-07-21T09:38:37;10;6;
61592;PMS5003;47485;51.378;-1.342;2022-07-21T09:41:07;7;6;
61592;PMS5003;47485;51.378;-1.342;2022-07-21T09:43:39;7;7;
61592;PMS5003;47485;51.378;-1.342;2022-07-21T09:46:08;5;5;
61592;PMS5003;47485;51.378;-1.342;2022-07-21T09:48:38;9;6;
61592;PMS5003;47485;51.378;-1.342;2022-07-21T09:51:23;9;9;
61592;PMS5003;47485;51.378;-1.342;2022-07-21T09:53:55;8;7;
61592;PMS5003;47485;51.378;-1.342;2022-07-21T09:56:25;9;6;
61592;PMS5003;47485;51.378;-1.342;2022-07-21T09:58:53;9;7;
61592;PMS5003;47485;51.378;-1.342;2022-07-21T10:01:21;9;8;
61592;PMS5003;47485;51.378;-1.342;2022-07-21T10:03:49;6;6;
61592;PMS5003;47485;51.378;-1.342;2022-07-21T10:06:17;12;9;
61592;PMS5003;47485;51.378;-1.342;2022-07-21T10:08:45;10;7;
61592;PMS5003;47485;51.378;-1.342;2022-07-21T10:11:12;9;9;
61592;PMS5003;47485;51.378;-1.342;2022-07-21T10:13:39;5;5;
61592;PMS5003;47485;51.378;-1.342;2022-07-21T10:16:07;10;7;
61592;PMS5003;47485;51.378;-1.342;2022-07-21T10:18:37;10;9;
61592;PMS5003;47485;51.378;-1.342;2022-07-21T10:21:11;8;8;
61592;PMS5003;47485;51.378;-1.342;2022-07-21T10:23:48;11;11;
61592;PMS5003;47485;51.378;-1.342;2022-07-21T10:26:20;14;11;
61592;PMS5003;47485;51.378;-1.342;2022-07-21T10:28:48;12;8;
61592;PMS5003;47485;51.378;-1.342;2022-07-21T10:31:16;8;8;
61592;PMS5003;47485;51.378;-1.342;2022-07-21T10:33:53;8;7;
61592;PMS5003;47485;51.378;-1.342;2022-07-21T10:36:54;13;9;
61592;PMS5003;47485;51.378;-1.342;2022-07-21T10:39:23;10;8;
61592;PMS5003;47485;51.378;-1.342;2022-07-21T10:41:52;6;6;
61592;PMS5003;47485;51.378;-1.342;2022-07-21T10:44:37;9;6;
61592;PMS5003;47485;51.378;-1.342;2022-07-21T10:47:06;10;9;
61592;PMS5003;47485;51.378;-1.342;2022-07-21T10:49:50;10;8;
61592;PMS5003;47485;51.378;-1.342;2022-07-21T10:53:24;9;9;
61592;PMS5003;47485;51.378;-1.342;2022-07-21T10:55:51;10;7;
61592;PMS5003;47485;51.378;-1.342;2022-07-21T10:58:24;8;7;
61592;PMS5003;47485;51.378;-1.342;2022-07-21T11:00:51;12;10;
61592;PMS5003;47485;51.378;-1.342;2022-07-21T11:03:20;10;8;
61592;PMS5003;47485;51.378;-1.342;2022-07-21T11:06:24;16;12;
61592;PMS5003;47485;51.378;-1.342;2022-07-21T11:08:51;9;9;
61592;PMS5003;47485;51.378;-1.342;2022-07-21T11:11:20;9;6;
61592;PMS5003;47485;51.378;-1.342;2022-07-21T11:14:04;10;9;
61592;PMS5003;47485;51.378;-1.342;2022-07-21T11:17:06;9;9;
61592;PMS5003;47485;51.378;-1.342;2022-07-21T11:19:35;13;10;
61592;PMS5003;47485;51.378;-1.342;2022-07-21T11:22:05;13;11;
61592;PMS5003;47485;51.378;-1.342;2022-07-21T11:24:35;13;11;
61592;PMS5003;47485;51.378;-1.342;2022-07-21T11:27:03;13;10;
61592;PMS5003;47485;51.378;-1.342;2022-07-21T11:29:31;12;10;
61592;PMS5003;47485;51.378;-1.342;2022-07-21T11:31:59;11;9;
61592;PMS5003;47485;51.378;-1.342;2022-07-21T11:34:36;12;10;
61592;PMS5003;47485;51.378;-1.342;2022-07-21T11:37:05;16;13;
61592;PMS5003;47485;51.378;-1.342;2022-07-21T11:39:32;13;11;
61592;PMS5003;47485;51.378;-1.342;2022-07-21T11:42:03;11;10;
61592;PMS5003;47485;51.378;-1.342;2022-07-21T11:44:31;11;10;
61592;PMS5003;47485;51.378;-1.342;2022-07-21T11:46:59;16;12;
61592;PMS5003;47485;51.378;-1.342;2022-07-21T11:49:28;13;12;
61592;PMS5003;47485;51.378;-1.342;2022-07-21T11:51:56;9;9;
61592;PMS5003;47485;51.378;-1.342;2022-07-21T11:54:26;12;12;
61592;PMS5003;47485;51.378;-1.342;2022-07-21T11:56:57;8;7;
61592;PMS5003;47485;51.378;-1.342;2022-07-21T11:59:25;11;9;
61592;PMS5003;47485;51.378;-1.342;2022-07-21T12:01:53;12;11;
61592;PMS5003;47485;51.378;-1.342;2022-07-21T12:04:26;12;10;
61592;PMS5003;47485;51.378;-1.342;2022-07-21T12:06:54;13;11;
61592;PMS5003;47485;51.378;-1.342;2022-07-21T12:09:22;11;10;
61592;PMS5003;47485;51.378;-1.342;2022-07-21T12:11:50;11;11;
61592;PMS5003;47485;51.378;-1.342;2022-07-21T12:14:17;19;13;
61592;PMS5003;47485;51.378;-1.342;2022-07-21T12:16:48;15;14;
61592;PMS5003;47485;51.378;-1.342;2022-07-21T12:19:15;15;13;
61592;PMS5003;47485;51.378;-1.342;2022-07-21T12:21:45;14;11;
61592;PMS5003;47485;51.378;-1.342;2022-07-21T12:24:14;15;12;
61592;PMS5003;47485;51.378;-1.342;2022-07-21T12:26:40;14;13;
61592;PMS5003;47485;51.378;-1.342;2022-07-21T12:29:07;19;17;
61592;PMS5003;47485;51.378;-1.342;2022-07-21T12:31:35;16;15;
61592;PMS5003;47485;51.378;-1.342;2022-07-21T12:34:12;12;12;
61592;PMS5003;47485;51.378;-1.342;2022-07-21T12:36:40;13;13;
61592;PMS5003;47485;51.378;-1.342;2022-07-21T12:39:13;14;12;
61592;PMS5003;47485;51.378;-1.342;2022-07-21T12:41:43;11;10;
61592;PMS5003;47485;51.378;-1.342;2022-07-21T12:44:11;10;10;
61592;PMS5003;47485;51.378;-1.342;2022-07-21T12:46:37;10;10;
61592;PMS5003;47485;51.378;-1.342;2022-07-21T12:49:04;11;11;
61592;PMS5003;47485;51.378;-1.342;2022-07-21T12:51:33;13;12;
61592;PMS5003;47485;51.378;-1.342;2022-07-21T12:54:00;13;11;
61592;PMS5003;47485;51.378;-1.342;2022-07-21T12:56:29;14;13;
61592;PMS5003;47485;51.378;-1.342;2022-07-21T12:58:58;15;14;
61592;PMS5003;47485;51.378;-1.342;2022-07-21T13:01:27;11;11;
61592;PMS5003;47485;51.378;-1.342;2022-07-21T13:03:56;11;11;
61592;PMS5003;47485;51.378;-1.342;2022-07-21T13:06:23;13;10;
61592;PMS5003;47485;51.378;-1.342;2022-07-21T13:08:50;9;8;
61592;PMS5003;47485;51.378;-1.342;2022-07-21T13:11:18;17;13;
61592;PMS5003;47485;51.378;-1.342;2022-07-21T13:13:46;14;14;
61592;PMS5003;47485;51.378;-1.342;2022-07-21T13:16:14;13;10;
61592;PMS5003;47485;51.378;-1.342;2022-07-21T13:18:42;13;13;
61592;PMS5003;47485;51.378;-1.342;2022-07-21T13:21:10;14;14;
61592;PMS5003;47485;51.378;-1.342;2022-07-21T13:23:36;13;13;
61592;PMS5003;47485;51.378;-1.342;2022-07-21T13:26:03;15;13;
61592;PMS5003;47485;51.378;-1.342;2022-07-21T13:28:30;11;11;
61592;PMS5003;47485;51.378;-1.342;2022-07-21T13:30:57;12;12;
61592;PMS5003;47485;51.378;-1.342;2022-07-21T13:33:24;13;13;
61592;PMS5003;47485;51.378;-1.342;2022-07-21T13:35:51;13;12;
61592;PMS5003;47485;51.378;-1.342;2022-07-21T13:38:17;15;14;
61592;PMS5003;47485;51.378;-1.342;2022-07-21T13:40:44;16;13;
61592;PMS5003;47485;51.378;-1.342;2022-07-21T13:43:12;10;9;
61592;PMS5003;47485;51.378;-1.342;2022-07-21T13:45:38;15;13;
61592;PMS5003;47485;51.378;-1.342;2022-07-21T13:48:05;13;13;
61592;PMS5003;47485;51.378;-1.342;2022-07-21T13:50:32;12;12;
61592;PMS5003;47485;51.378;-1.342;2022-07-21T13:52:58;11;11;
61592;PMS5003;47485;51.378;-1.342;2022-07-21T13:55:25;15;14;
61592;PMS5003;47485;51.378;-1.342;2022-07-21T13:57:52;14;14;
61592;PMS5003;47485;51.378;-1.342;2022-07-21T14:00:19;11;11;
61592;PMS5003;47485;51.378;-1.342;2022-07-21T14:02:46;14;12;
61592;PMS5003;47485;51.378;-1.342;2022-07-21T14:05:13;12;11;
61592;PMS5003;47485;51.378;-1.342;2022-07-21T14:07:40;16;13;
61592;PMS5003;47485;51.378;-1.342;2022-07-21T14:10:07;13;11;
61592;PMS5003;47485;51.378;-1.342;2022-07-21T14:12:34;15;12;
61592;PMS5003;47485;51.378;-1.342;2022-07-21T14:15:01;13;11;
61592;PMS5003;47485;51.378;-1.342;2022-07-21T14:17:27;12;11;
61592;PMS5003;47485;51.378;-1.342;2022-07-21T14:19:54;11;11;
61592;PMS5003;47485;51.378;-1.342;2022-07-21T14:22:21;15;12;
61592;PMS5003;47485;51.378;-1.342;2022-07-21T14:24:47;11;11;
61592;PMS5003;47485;51.378;-1.342;2022-07-21T14:27:15;14;12;
61592;PMS5003;47485;51.378;-1.342;2022-07-21T14:29:42;12;9;
61592;PMS5003;47485;51.378;-1.342;2022-07-21T14:32:09;12;10;
61592;PMS5003;47485;51.378;-1.342;2022-07-21T14:34:36;14;11;
61592;PMS5003;47485;51.378;-1.342;2022-07-21T14:37:04;11;11;
61592;PMS5003;47485;51.378;-1.342;2022-07-21T14:39:30;11;10;
61592;PMS5003;47485;51.378;-1.342;2022-07-21T14:41:57;8;7;
61592;PMS5003;47485;51.378;-1.342;2022-07-21T14:44:24;11;11;
61592;PMS5003;47485;51.378;-1.342;2022-07-21T14:46:50;14;12;
61592;PMS5003;47485;51.378;-1.342;2022-07-21T14:49:17;11;10;
61592;PMS5003;47485;51.378;-1.342;2022-07-21T14:51:44;10;10;
61592;PMS5003;47485;51.378;-1.342;2022-07-21T14:54:11;12;12;
61592;PMS5003;47485;51.378;-1.342;2022-07-21T14:56:38;21;19;
61592;PMS5003;47485;51.378;-1.342;2022-07-21T14:59:05;11;11;
61592;PMS5003;47485;51.378;-1.342;2022-07-21T15:01:32;11;11;
61592;PMS5003;47485;51.378;-1.342;2022-07-21T15:03:58;11;10;
61592;PMS5003;47485;51.378;-1.342;2022-07-21T15:06:25;11;10;
61592;PMS5003;47485;51.378;-1.342;2022-07-21T15:08:52;9;9;
61592;PMS5003;47485;51.378;-1.342;2022-07-21T15:11:18;12;11;
61592;PMS5003;47485;51.378;-1.342;2022-07-21T15:13:45;11;10;
61592;PMS5003;47485;51.378;-1.342;2022-07-21T15:16:11;15;14;
61592;PMS5003;47485;51.378;-1.342;2022-07-21T15:18:38;12;10;
61592;PMS5003;47485;51.378;-1.342;2022-07-21T15:21:05;12;12;
61592;PMS5003;47485;51.378;-1.342;2022-07-21T15:23:32;14;14;
61592;PMS5003;47485;51.378;-1.342;2022-07-21T15:25:58;12;8;
61592;PMS5003;47485;51.378;-1.342;2022-07-21T15:28:25;12;12;
61592;PMS5003;47485;51.378;-1.342;2022-07-21T15:30:52;8;8;
61592;PMS5003;47485;51.378;-1.342;2022-07-21T15:33:18;11;9;
61592;PMS5003;47485;51.378;-1.342;2022-07-21T15:35:45;9;9;
61592;PMS5003;47485;51.378;-1.342;2022-07-21T15:38:12;13;13;
61592;PMS5003;47485;51.378;-1.342;2022-07-21T15:40:38;9;9;
61592;PMS5003;47485;51.378;-1.342;2022-07-21T15:43:05;10;10;
61592;PMS5003;47485;51.378;-1.342;2022-07-21T15:45:32;12;12;
61592;PMS5003;47485;51.378;-1.342;2022-07-21T15:47:58;13;13;
61592;PMS5003;47485;51.378;-1.342;2022-07-21T15:50:25;11;11;
61592;PMS5003;47485;51.378;-1.342;2022-07-21T15:52:52;16;15;
61592;PMS5003;47485;51.378;-1.342;2022-07-21T15:55:19;10;9;
61592;PMS5003;47485;51.378;-1.342;2022-07-21T15:57:46;9;9;
61592;PMS5003;47485;51.378;-1.342;2022-07-21T16:00:13;10;10;
61592;PMS5003;47485;51.378;-1.342;2022-07-21T16:02:40;12;11;
61592;PMS5003;47485;51.378;-1.342;2022-07-21T16:05:09;11;9;
61592;PMS5003;47485;51.378;-1.342;2022-07-21T16:07:37;12;12;
61592;PMS5003;47485;51.378;-1.342;2022-07-21T16:10:04;10;10;
61592;PMS5003;47485;51.378;-1.342;2022-07-21T16:12:32;10;9;
61592;PMS5003;47485;51.378;-1.342;2022-07-21T16:14:59;13;11;
61592;PMS5003;47485;51.378;-1.342;2022-07-21T16:17:25;10;10;
61592;PMS5003;47485;51.378;-1.342;2022-07-21T16:19:52;10;10;
61592;PMS5003;47485;51.378;-1.342;2022-07-21T16:22:20;13;10;
61592;PMS5003;47485;51.378;-1.342;2022-07-21T16:24:47;10;10;
61592;PMS5003;47485;51.378;-1.342;2022-07-21T16:27:13;11;11;
61592;PMS5003;47485;51.378;-1.342;2022-07-21T16:29:41;10;10;